sensor_id;sensor_type;location;lat;lon;timestamp;pressure;altitude;pressure_sealevel;temperature;humidity
81628;BME280;71036;51.102;6.514;2023-09-07T00:02:19;101280.19;;;17.27;85.33
81628;BME280;71036;51.102;6.514;2023-09-07T00:04:44;101281.91;;;17.18;85.40
81628;BME280;71036;51.102;6.514;2023-09-07T00:07:10;101274.84;;;17.45;85.05
81628;BME280;71036;51.102;6.514;2023-09-07T00:09:35;101270.53;;;17.52;84.18
81628;BME280;71036;51.102;6.514;2023-09-07T00:12:00;101262.69;;;17.58;84.20
81628;BME280;71036;51.102;6.514;2023-09-07T00:14:25;101269.69;;;17.51;83.56
81628;BME280;71036;51.102;6.514;2023-09-07T00:16:51;101261.81;;;17.48;84.32
81628;BME280;71036;51.102;6.514;2023-09-07T00:19:16;101262.41;;;17.42;84.53
81628;BME280;71036;51.102;6.514;2023-09-07T00:21:41;101266.13;;;17.41;84.02
81628;BME280;71036;51.102;6.514;2023-09-07T00:24:06;101266.56;;;17.46;84.11
81628;BME280;71036;51.102;6.514;2023-09-07T00:26:32;101260.97;;;17.38;83.97
81628;BME280;71036;51.102;6.514;2023-09-07T00:28:57;101260.13;;;17.38;84.08
81628;BME280;71036;51.102;6.514;2023-09-07T00:31:23;101257.84;;;17.33;84.75
81628;BME280;71036;51.102;6.514;2023-09-07T00:33:48;101259.56;;;17.44;84.00
81628;BME280;71036;51.102;6.514;2023-09-07T00:36:13;101260.09;;;17.47;84.10
81628;BME280;71036;51.102;6.514;2023-09-07T00:38:38;101260.53;;;17.43;83.85
81628;BME280;71036;51.102;6.514;2023-09-07T00:41:04;101259.78;;;17.50;83.82
81628;BME280;71036;51.102;6.514;2023-09-07T00:43:29;101257.06;;;17.50;83.46
81628;BME280;71036;51.102;6.514;2023-09-07T00:45:54;101253.50;;;17.59;83.31
81628;BME280;71036;51.102;6.514;2023-09-07T00:48:20;101254.94;;;17.44;84.00
81628;BME280;71036;51.102;6.514;2023-09-07T00:50:45;101261.44;;;17.33;84.69
81628;BME280;71036;51.102;6.514;2023-09-07T00:53:11;101259.47;;;17.26;84.74
81628;BME280;71036;51.102;6.514;2023-09-07T00:55:37;101257.44;;;17.18;84.83
81628;BME280;71036;51.102;6.514;2023-09-07T00:58:04;101260.34;;;17.07;85.09
81628;BME280;71036;51.102;6.514;2023-09-07T01:00:30;101259.06;;;17.02;85.27
81628;BME280;71036;51.102;6.514;2023-09-07T01:02:55;101266.66;;;16.89;85.63
81628;BME280;71036;51.102;6.514;2023-09-07T01:05:34;101252.66;;;16.84;85.74
81628;BME280;71036;51.102;6.514;2023-09-07T01:08:10;101267.38;;;16.81;86.08
81628;BME280;71036;51.102;6.514;2023-09-07T01:10:37;101256.38;;;16.63;86.41
81628;BME280;71036;51.102;6.514;2023-09-07T01:13:02;101263.06;;;16.59;87.49
81628;BME280;71036;51.102;6.514;2023-09-07T01:15:27;101262.09;;;16.60;87.51
81628;BME280;71036;51.102;6.514;2023-09-07T01:17:53;101258.19;;;16.53;87.85
81628;BME280;71036;51.102;6.514;2023-09-07T01:20:20;101257.06;;;16.56;87.63
81628;BME280;71036;51.102;6.514;2023-09-07T01:22:45;101264.06;;;16.49;88.27
81628;BME280;71036;51.102;6.514;2023-09-07T01:25:11;101251.34;;;16.49;87.93
81628;BME280;71036;51.102;6.514;2023-09-07T01:27:36;101256.88;;;16.38;88.03
81628;BME280;71036;51.102;6.514;2023-09-07T01:30:02;101252.47;;;16.37;88.94
81628;BME280;71036;51.102;6.514;2023-09-07T01:32:28;101244.88;;;16.31;88.08
81628;BME280;71036;51.102;6.514;2023-09-07T01:34:57;101248.44;;;16.41;88.28
81628;BME280;71036;51.102;6.514;2023-09-07T01:37:23;101254.91;;;16.40;88.90
81628;BME280;71036;51.102;6.514;2023-09-07T01:39:48;101251.59;;;16.37;87.86
81628;BME280;71036;51.102;6.514;2023-09-07T01:42:14;101248.47;;;16.32;87.71
81628;BME280;71036;51.102;6.514;2023-09-07T01:44:39;101250.75;;;16.36;88.04
81628;BME280;71036;51.102;6.514;2023-09-07T01:47:05;101242.97;;;16.12;89.06
81628;BME280;71036;51.102;6.514;2023-09-07T01:49:30;101245.72;;;16.22;88.99
81628;BME280;71036;51.102;6.514;2023-09-07T01:51:55;101230.72;;;16.08;88.92
81628;BME280;71036;51.102;6.514;2023-09-07T01:54:21;101234.84;;;16.12;89.09
81628;BME280;71036;51.102;6.514;2023-09-07T01:56:47;101239.41;;;16.02;89.30
81628;BME280;71036;51.102;6.514;2023-09-07T01:59:12;101236.22;;;15.97;90.38
81628;BME280;71036;51.102;6.514;2023-09-07T02:01:37;101236.38;;;15.96;89.73
81628;BME280;71036;51.102;6.514;2023-09-07T02:04:04;101238.63;;;15.81;89.48
81628;BME280;71036;51.102;6.514;2023-09-07T02:06:29;101244.53;;;15.96;89.92
81628;BME280;71036;51.102;6.514;2023-09-07T02:08:54;101239.22;;;15.85;90.24
81628;BME280;71036;51.102;6.514;2023-09-07T02:11:20;101230.66;;;15.89;89.73
81628;BME280;71036;51.102;6.514;2023-09-07T02:13:46;101231.91;;;15.85;90.26
81628;BME280;71036;51.102;6.514;2023-09-07T02:16:12;101232.03;;;15.74;90.51
81628;BME280;71036;51.102;6.514;2023-09-07T02:18:37;101225.03;;;15.72;90.38
81628;BME280;71036;51.102;6.514;2023-09-07T02:21:05;101227.19;;;15.78;90.34
81628;BME280;71036;51.102;6.514;2023-09-07T02:23:32;101231.75;;;15.77;90.18
81628;BME280;71036;51.102;6.514;2023-09-07T02:25:57;101228.16;;;15.67;89.64
81628;BME280;71036;51.102;6.514;2023-09-07T02:28:24;101227.84;;;15.60;90.94
81628;BME280;71036;51.102;6.514;2023-09-07T02:30:49;101239.34;;;15.53;90.78
81628;BME280;71036;51.102;6.514;2023-09-07T02:33:14;101235.34;;;15.47;91.47
81628;BME280;71036;51.102;6.514;2023-09-07T02:35:39;101242.50;;;15.48;91.60
81628;BME280;71036;51.102;6.514;2023-09-07T02:38:05;101230.78;;;15.48;90.90
81628;BME280;71036;51.102;6.514;2023-09-07T02:40:30;101233.66;;;15.56;91.00
81628;BME280;71036;51.102;6.514;2023-09-07T02:42:55;101230.84;;;15.57;90.37
81628;BME280;71036;51.102;6.514;2023-09-07T02:45:21;101235.53;;;15.55;90.64
81628;BME280;71036;51.102;6.514;2023-09-07T02:47:46;101237.31;;;15.45;90.47
81628;BME280;71036;51.102;6.514;2023-09-07T02:50:14;101229.66;;;15.30;91.91
81628;BME280;71036;51.102;6.514;2023-09-07T02:52:41;101232.09;;;15.33;91.83
81628;BME280;71036;51.102;6.514;2023-09-07T02:55:06;101236.47;;;15.24;91.38
81628;BME280;71036;51.102;6.514;2023-09-07T02:57:32;101231.06;;;15.24;91.96
81628;BME280;71036;51.102;6.514;2023-09-07T02:59:57;101240.59;;;15.19;92.33
81628;BME280;71036;51.102;6.514;2023-09-07T03:02:22;101235.59;;;15.24;92.24
81628;BME280;71036;51.102;6.514;2023-09-07T03:04:47;101223.78;;;15.25;91.45
81628;BME280;71036;51.102;6.514;2023-09-07T03:07:13;101234.19;;;15.20;91.57
81628;BME280;71036;51.102;6.514;2023-09-07T03:09:38;101238.31;;;15.24;91.69
81628;BME280;71036;51.102;6.514;2023-09-07T03:12:04;101227.97;;;15.08;91.19
81628;BME280;71036;51.102;6.514;2023-09-07T03:14:29;101233.47;;;15.18;92.11
81628;BME280;71036;51.102;6.514;2023-09-07T03:16:55;101231.34;;;15.00;91.45
81628;BME280;71036;51.102;6.514;2023-09-07T03:19:20;101223.63;;;14.96;91.79
81628;BME280;71036;51.102;6.514;2023-09-07T03:21:46;101228.31;;;14.94;92.68
81628;BME280;71036;51.102;6.514;2023-09-07T03:24:11;101229.56;;;14.90;93.41
81628;BME280;71036;51.102;6.514;2023-09-07T03:26:36;101226.72;;;14.91;92.68
81628;BME280;71036;51.102;6.514;2023-09-07T03:29:01;101226.66;;;14.82;91.42
81628;BME280;71036;51.102;6.514;2023-09-07T03:31:28;101227.47;;;14.93;92.08
81628;BME280;71036;51.102;6.514;2023-09-07T03:33:54;101224.41;;;14.87;91.52
81628;BME280;71036;51.102;6.514;2023-09-07T03:36:19;101222.41;;;14.89;90.96
81628;BME280;71036;51.102;6.514;2023-09-07T03:38:46;101220.50;;;14.80;91.07
81628;BME280;71036;51.102;6.514;2023-09-07T03:41:12;101230.41;;;14.70;91.85
81628;BME280;71036;51.102;6.514;2023-09-07T03:43:37;101231.91;;;14.63;91.72
81628;BME280;71036;51.102;6.514;2023-09-07T03:46:02;101226.25;;;14.66;93.03
81628;BME280;71036;51.102;6.514;2023-09-07T03:48:28;101232.19;;;14.59;91.39
81628;BME280;71036;51.102;6.514;2023-09-07T03:50:53;101237.06;;;14.66;92.12
81628;BME280;71036;51.102;6.514;2023-09-07T03:53:18;101233.50;;;14.65;92.83
81628;BME280;71036;51.102;6.514;2023-09-07T03:55:44;101229.22;;;14.63;92.31
81628;BME280;71036;51.102;6.514;2023-09-07T03:58:11;101227.31;;;14.74;92.11
81628;BME280;71036;51.102;6.514;2023-09-07T04:00:44;101229.41;;;14.71;91.26
81628;BME280;71036;51.102;6.514;2023-09-07T04:03:09;101239.66;;;14.67;92.63
81628;BME280;71036;51.102;6.514;2023-09-07T04:05:37;101232.78;;;14.63;93.21
81628;BME280;71036;51.102;6.514;2023-09-07T04:08:02;101234.78;;;14.61;92.60
81628;BME280;71036;51.102;6.514;2023-09-07T04:10:28;101235.41;;;14.53;92.22
81628;BME280;71036;51.102;6.514;2023-09-07T04:12:53;101237.19;;;14.43;91.98
81628;BME280;71036;51.102;6.514;2023-09-07T04:15:18;101242.28;;;14.57;93.08
81628;BME280;71036;51.102;6.514;2023-09-07T04:17:44;101240.25;;;14.50;92.10
81628;BME280;71036;51.102;6.514;2023-09-07T04:20:09;101236.44;;;14.41;92.80
81628;BME280;71036;51.102;6.514;2023-09-07T04:22:37;101236.94;;;14.46;93.26
81628;BME280;71036;51.102;6.514;2023-09-07T04:25:03;101230.91;;;14.43;92.70
81628;BME280;71036;51.102;6.514;2023-09-07T04:27:30;101229.44;;;14.39;93.12
81628;BME280;71036;51.102;6.514;2023-09-07T04:29:55;101230.56;;;14.25;92.81
81628;BME280;71036;51.102;6.514;2023-09-07T04:32:20;101236.09;;;14.24;93.00
81628;BME280;71036;51.102;6.514;2023-09-07T04:34:46;101236.59;;;14.29;93.49
81628;BME280;71036;51.102;6.514;2023-09-07T04:37:11;101231.03;;;14.30;93.29
81628;BME280;71036;51.102;6.514;2023-09-07T04:39:36;101229.34;;;14.18;92.61
81628;BME280;71036;51.102;6.514;2023-09-07T04:42:01;101229.34;;;14.29;93.82
81628;BME280;71036;51.102;6.514;2023-09-07T04:44:27;101233.88;;;14.29;93.71
81628;BME280;71036;51.102;6.514;2023-09-07T04:46:55;101239.41;;;14.38;93.25
81628;BME280;71036;51.102;6.514;2023-09-07T04:49:20;101242.25;;;14.37;92.42
81628;BME280;71036;51.102;6.514;2023-09-07T04:51:46;101247.00;;;14.44;91.92
81628;BME280;71036;51.102;6.514;2023-09-07T04:54:11;101254.03;;;14.47;92.27
81628;BME280;71036;51.102;6.514;2023-09-07T04:56:37;101246.88;;;14.46;92.16
81628;BME280;71036;51.102;6.514;2023-09-07T04:59:02;101246.03;;;14.45;92.06
81628;BME280;71036;51.102;6.514;2023-09-07T05:01:28;101254.19;;;14.34;92.95
81628;BME280;71036;51.102;6.514;2023-09-07T05:03:53;101251.50;;;14.34;92.38
81628;BME280;71036;51.102;6.514;2023-09-07T05:06:19;101255.53;;;14.29;92.53
81628;BME280;71036;51.102;6.514;2023-09-07T05:08:46;101260.81;;;14.30;93.40
81628;BME280;71036;51.102;6.514;2023-09-07T05:11:12;101258.25;;;14.29;92.80
81628;BME280;71036;51.102;6.514;2023-09-07T05:13:37;101259.34;;;14.26;92.76
81628;BME280;71036;51.102;6.514;2023-09-07T05:16:02;101257.88;;;14.33;93.39
81628;BME280;71036;51.102;6.514;2023-09-07T05:18:29;101259.97;;;14.41;92.93
81628;BME280;71036;51.102;6.514;2023-09-07T05:20:55;101265.25;;;14.31;92.69
81628;BME280;71036;51.102;6.514;2023-09-07T05:23:21;101268.91;;;14.41;92.93
81628;BME280;71036;51.102;6.514;2023-09-07T05:25:54;101270.44;;;14.34;93.30
81628;BME280;71036;51.102;6.514;2023-09-07T05:28:20;101268.69;;;14.33;93.50
81628;BME280;71036;51.102;6.514;2023-09-07T05:30:46;101276.44;;;14.38;92.97
81628;BME280;71036;51.102;6.514;2023-09-07T05:33:14;101269.91;;;14.40;93.38
81628;BME280;71036;51.102;6.514;2023-09-07T05:35:40;101267.69;;;14.45;93.70
81628;BME280;71036;51.102;6.514;2023-09-07T05:38:07;101268.50;;;14.57;93.70
81628;BME280;71036;51.102;6.514;2023-09-07T05:40:37;101266.25;;;14.62;92.70
81628;BME280;71036;51.102;6.514;2023-09-07T05:43:02;101269.56;;;14.66;92.32
81628;BME280;71036;51.102;6.514;2023-09-07T05:45:29;101263.63;;;14.72;93.12
81628;BME280;71036;51.102;6.514;2023-09-07T05:47:55;101269.66;;;14.75;93.09
81628;BME280;71036;51.102;6.514;2023-09-07T05:50:20;101258.22;;;15.13;90.80
81628;BME280;71036;51.102;6.514;2023-09-07T05:52:46;101262.97;;;15.21;91.12
81628;BME280;71036;51.102;6.514;2023-09-07T05:55:11;101276.88;;;15.48;89.25
81628;BME280;71036;51.102;6.514;2023-09-07T05:57:36;101263.69;;;15.74;87.66
81628;BME280;71036;51.102;6.514;2023-09-07T06:00:02;101275.72;;;16.30;85.32
81628;BME280;71036;51.102;6.514;2023-09-07T06:02:29;101257.53;;;16.61;82.57
81628;BME280;71036;51.102;6.514;2023-09-07T06:04:54;101267.50;;;16.89;81.29
81628;BME280;71036;51.102;6.514;2023-09-07T06:07:19;101261.03;;;17.19;80.23
81628;BME280;71036;51.102;6.514;2023-09-07T06:09:44;101267.84;;;17.42;79.15
81628;BME280;71036;51.102;6.514;2023-09-07T06:12:10;101266.09;;;17.60;79.01
81628;BME280;71036;51.102;6.514;2023-09-07T06:14:35;101266.88;;;17.80;77.14
81628;BME280;71036;51.102;6.514;2023-09-07T06:17:00;101280.28;;;17.91;78.44
81628;BME280;71036;51.102;6.514;2023-09-07T06:19:25;101272.94;;;18.01;75.25
81628;BME280;71036;51.102;6.514;2023-09-07T06:21:51;101283.03;;;18.36;74.47
81628;BME280;71036;51.102;6.514;2023-09-07T06:24:16;101275.66;;;18.46;74.12
81628;BME280;71036;51.102;6.514;2023-09-07T06:26:41;101285.91;;;18.62;73.13
81628;BME280;71036;51.102;6.514;2023-09-07T06:29:07;101282.31;;;18.79;72.75
81628;BME280;71036;51.102;6.514;2023-09-07T06:31:33;101284.81;;;19.08;70.12
81628;BME280;71036;51.102;6.514;2023-09-07T06:33:58;101283.19;;;19.23;69.26
81628;BME280;71036;51.102;6.514;2023-09-07T06:36:23;101282.47;;;19.38;68.55
81628;BME280;71036;51.102;6.514;2023-09-07T06:38:49;101291.31;;;19.58;67.62
81628;BME280;71036;51.102;6.514;2023-09-07T06:41:14;101286.63;;;19.68;67.22
81628;BME280;71036;51.102;6.514;2023-09-07T06:43:40;101287.38;;;19.78;66.70
81628;BME280;71036;51.102;6.514;2023-09-07T06:46:07;101293.88;;;19.85;66.49
81628;BME280;71036;51.102;6.514;2023-09-07T06:48:33;101289.47;;;19.92;66.73
81628;BME280;71036;51.102;6.514;2023-09-07T06:51:05;101294.47;;;20.05;65.64
81628;BME280;71036;51.102;6.514;2023-09-07T06:53:32;101295.31;;;20.05;67.03
81628;BME280;71036;51.102;6.514;2023-09-07T06:56:01;101301.25;;;20.27;65.23
81628;BME280;71036;51.102;6.514;2023-09-07T06:58:28;101300.59;;;20.33;65.35
81628;BME280;71036;51.102;6.514;2023-09-07T07:01:00;101302.19;;;20.51;64.38
81628;BME280;71036;51.102;6.514;2023-09-07T07:03:26;101298.75;;;20.49;64.70
81628;BME280;71036;51.102;6.514;2023-09-07T07:05:52;101309.88;;;20.64;63.39
81628;BME280;71036;51.102;6.514;2023-09-07T07:08:17;101305.16;;;20.90;62.37
81628;BME280;71036;51.102;6.514;2023-09-07T07:10:43;101302.06;;;20.93;62.29
81628;BME280;71036;51.102;6.514;2023-09-07T07:13:08;101303.13;;;21.00;62.52
81628;BME280;71036;51.102;6.514;2023-09-07T07:15:34;101304.84;;;21.17;61.48
81628;BME280;71036;51.102;6.514;2023-09-07T07:18:00;101316.47;;;21.19;62.51
81628;BME280;71036;51.102;6.514;2023-09-07T07:20:26;101312.38;;;21.32;61.58
81628;BME280;71036;51.102;6.514;2023-09-07T07:22:51;101310.84;;;21.29;62.32
81628;BME280;71036;51.102;6.514;2023-09-07T07:25:17;101310.47;;;21.40;61.00
81628;BME280;71036;51.102;6.514;2023-09-07T07:27:42;101314.41;;;21.62;60.74
81628;BME280;71036;51.102;6.514;2023-09-07T07:30:08;101306.50;;;21.67;60.76
81628;BME280;71036;51.102;6.514;2023-09-07T07:32:33;101307.53;;;21.74;60.08
81628;BME280;71036;51.102;6.514;2023-09-07T07:34:58;101310.88;;;22.08;58.51
81628;BME280;71036;51.102;6.514;2023-09-07T07:37:24;101306.81;;;22.35;57.70
81628;BME280;71036;51.102;6.514;2023-09-07T07:39:49;101304.47;;;22.55;56.02
81628;BME280;71036;51.102;6.514;2023-09-07T07:42:14;101313.00;;;22.91;56.30
81628;BME280;71036;51.102;6.514;2023-09-07T07:44:39;101308.56;;;23.12;56.07
81628;BME280;71036;51.102;6.514;2023-09-07T07:47:05;101304.97;;;22.89;56.21
81628;BME280;71036;51.102;6.514;2023-09-07T07:49:30;101311.97;;;22.69;56.59
81628;BME280;71036;51.102;6.514;2023-09-07T07:51:56;101312.44;;;22.72;57.54
81628;BME280;71036;51.102;6.514;2023-09-07T07:54:23;101304.34;;;22.79;56.88
81628;BME280;71036;51.102;6.514;2023-09-07T07:56:50;101308.50;;;22.98;55.98
81628;BME280;71036;51.102;6.514;2023-09-07T07:59:15;101304.94;;;23.34;54.79
81628;BME280;71036;51.102;6.514;2023-09-07T08:01:40;101304.00;;;24.09;52.89
81628;BME280;71036;51.102;6.514;2023-09-07T08:04:06;101303.63;;;24.77;51.26
81628;BME280;71036;51.102;6.514;2023-09-07T08:06:32;101308.41;;;24.89;51.04
81628;BME280;71036;51.102;6.514;2023-09-07T08:08:57;101307.88;;;25.22;50.46
81628;BME280;71036;51.102;6.514;2023-09-07T08:11:23;101303.25;;;25.22;49.97
81628;BME280;71036;51.102;6.514;2023-09-07T08:13:50;101294.50;;;25.95;48.46
81628;BME280;71036;51.102;6.514;2023-09-07T08:16:15;101307.06;;;26.45;46.40
81628;BME280;71036;51.102;6.514;2023-09-07T08:18:41;101309.56;;;26.27;47.29
81628;BME280;71036;51.102;6.514;2023-09-07T08:21:06;101309.09;;;26.78;45.13
81628;BME280;71036;51.102;6.514;2023-09-07T08:23:31;101304.72;;;26.42;46.23
81628;BME280;71036;51.102;6.514;2023-09-07T08:25:57;101303.31;;;26.53;46.63
81628;BME280;71036;51.102;6.514;2023-09-07T08:28:23;101296.69;;;27.54;44.22
81628;BME280;71036;51.102;6.514;2023-09-07T08:30:50;101296.88;;;28.56;41.13
81628;BME280;71036;51.102;6.514;2023-09-07T08:33:19;101297.16;;;27.44;43.15
81628;BME280;71036;51.102;6.514;2023-09-07T08:35:44;101294.09;;;28.05;42.90
81628;BME280;71036;51.102;6.514;2023-09-07T08:38:10;101294.69;;;28.20;42.44
81628;BME280;71036;51.102;6.514;2023-09-07T08:40:35;101288.16;;;28.97;40.47
81628;BME280;71036;51.102;6.514;2023-09-07T08:43:04;101283.09;;;30.11;38.23
81628;BME280;71036;51.102;6.514;2023-09-07T08:45:37;101278.25;;;31.55;35.29
81628;BME280;71036;51.102;6.514;2023-09-07T08:48:06;101280.09;;;31.61;34.54
81628;BME280;71036;51.102;6.514;2023-09-07T08:50:32;101277.19;;;31.79;34.45
81628;BME280;71036;51.102;6.514;2023-09-07T08:52:59;101277.66;;;31.76;34.72
81628;BME280;71036;51.102;6.514;2023-09-07T08:55:25;101274.59;;;32.92;32.64
81628;BME280;71036;51.102;6.514;2023-09-07T08:57:50;101277.94;;;33.89;31.25
81628;BME280;71036;51.102;6.514;2023-09-07T09:00:16;101276.81;;;35.25;29.21
81628;BME280;71036;51.102;6.514;2023-09-07T09:02:42;101269.13;;;36.21;27.26
81628;BME280;71036;51.102;6.514;2023-09-07T09:05:12;101265.41;;;33.92;30.43
81628;BME280;71036;51.102;6.514;2023-09-07T09:07:39;101264.06;;;32.66;32.83
81628;BME280;71036;51.102;6.514;2023-09-07T09:10:06;101270.22;;;34.34;30.47
81628;BME280;71036;51.102;6.514;2023-09-07T09:12:32;101269.09;;;34.14;30.48
81628;BME280;71036;51.102;6.514;2023-09-07T09:14:58;101272.25;;;34.44;30.49
81628;BME280;71036;51.102;6.514;2023-09-07T09:17:24;101262.97;;;34.39;29.85
81628;BME280;71036;51.102;6.514;2023-09-07T09:19:49;101268.84;;;35.44;28.72
81628;BME280;71036;51.102;6.514;2023-09-07T09:22:15;101278.19;;;34.96;29.73
81628;BME280;71036;51.102;6.514;2023-09-07T09:24:40;101259.91;;;35.47;28.86
81628;BME280;71036;51.102;6.514;2023-09-07T09:27:05;101265.97;;;35.66;28.41
81628;BME280;71036;51.102;6.514;2023-09-07T09:29:34;101274.44;;;37.00;26.31
81628;BME280;71036;51.102;6.514;2023-09-07T09:32:04;101266.94;;;36.33;26.86
81628;BME280;71036;51.102;6.514;2023-09-07T09:34:33;101263.72;;;36.72;26.84
81628;BME280;71036;51.102;6.514;2023-09-07T09:36:59;101268.78;;;36.85;26.44
81628;BME280;71036;51.102;6.514;2023-09-07T09:39:25;101256.81;;;35.80;28.11
81628;BME280;71036;51.102;6.514;2023-09-07T09:41:52;101255.75;;;35.91;28.99
81628;BME280;71036;51.102;6.514;2023-09-07T09:44:23;101261.28;;;37.71;25.79
81628;BME280;71036;51.102;6.514;2023-09-07T09:46:52;101262.97;;;37.37;26.14
81628;BME280;71036;51.102;6.514;2023-09-07T09:49:21;101261.84;;;37.53;25.78
81628;BME280;71036;51.102;6.514;2023-09-07T09:51:50;101256.72;;;36.84;26.60
81628;BME280;71036;51.102;6.514;2023-09-07T09:54:20;101261.94;;;36.45;27.44
81628;BME280;71036;51.102;6.514;2023-09-07T09:56:48;101257.34;;;37.62;25.58
81628;BME280;71036;51.102;6.514;2023-09-07T09:59:14;101255.38;;;37.42;25.28
81628;BME280;71036;51.102;6.514;2023-09-07T10:01:43;101244.88;;;35.95;28.48
81628;BME280;71036;51.102;6.514;2023-09-07T10:04:11;101243.97;;;36.41;27.30
81628;BME280;71036;51.102;6.514;2023-09-07T10:06:37;101251.66;;;36.66;27.28
81628;BME280;71036;51.102;6.514;2023-09-07T10:09:05;101237.22;;;36.32;27.19
81628;BME280;71036;51.102;6.514;2023-09-07T10:11:37;101229.97;;;36.46;27.47
81628;BME280;71036;51.102;6.514;2023-09-07T10:14:04;101234.28;;;37.95;25.16
81628;BME280;71036;51.102;6.514;2023-09-07T10:16:44;101236.94;;;38.26;24.13
81628;BME280;71036;51.102;6.514;2023-09-07T10:19:17;101239.75;;;38.85;23.78
81628;BME280;71036;51.102;6.514;2023-09-07T10:21:43;101231.25;;;37.36;25.83
81628;BME280;71036;51.102;6.514;2023-09-07T10:24:09;101236.88;;;37.01;26.02
81628;BME280;71036;51.102;6.514;2023-09-07T10:26:34;101230.50;;;38.20;23.80
81628;BME280;71036;51.102;6.514;2023-09-07T10:29:01;101229.81;;;37.64;25.60
81628;BME280;71036;51.102;6.514;2023-09-07T10:31:29;101223.69;;;35.62;28.27
81628;BME280;71036;51.102;6.514;2023-09-07T10:33:55;101223.34;;;36.83;26.20
81628;BME280;71036;51.102;6.514;2023-09-07T10:36:23;101211.34;;;37.28;26.24
81628;BME280;71036;51.102;6.514;2023-09-07T10:38:48;101207.59;;;37.93;25.71
81628;BME280;71036;51.102;6.514;2023-09-07T10:41:14;101209.81;;;37.96;26.32
81628;BME280;71036;51.102;6.514;2023-09-07T10:43:50;101203.88;;;38.02;25.43
81628;BME280;71036;51.102;6.514;2023-09-07T10:46:19;101201.47;;;37.40;26.71
81628;BME280;71036;51.102;6.514;2023-09-07T10:48:45;101198.28;;;36.36;30.26
81628;BME280;71036;51.102;6.514;2023-09-07T10:51:10;101197.56;;;37.31;26.22
81628;BME280;71036;51.102;6.514;2023-09-07T10:53:35;101201.47;;;37.66;25.88
81628;BME280;71036;51.102;6.514;2023-09-07T10:56:05;101186.63;;;37.15;26.56
81628;BME280;71036;51.102;6.514;2023-09-07T10:58:32;101194.19;;;36.74;26.62
81628;BME280;71036;51.102;6.514;2023-09-07T11:00:58;101186.47;;;36.29;27.66
81628;BME280;71036;51.102;6.514;2023-09-07T11:03:24;101178.97;;;36.49;28.01
81628;BME280;71036;51.102;6.514;2023-09-07T11:05:51;101193.09;;;37.50;25.91
81628;BME280;71036;51.102;6.514;2023-09-07T11:08:18;101187.47;;;37.20;26.86
81628;BME280;71036;51.102;6.514;2023-09-07T11:10:44;101188.44;;;38.00;25.36
81628;BME280;71036;51.102;6.514;2023-09-07T11:13:10;101182.69;;;37.56;25.55
81628;BME280;71036;51.102;6.514;2023-09-07T11:15:35;101187.47;;;36.75;27.85
81628;BME280;71036;51.102;6.514;2023-09-07T11:18:10;101185.75;;;36.59;27.79
81628;BME280;71036;51.102;6.514;2023-09-07T11:20:42;101168.38;;;36.97;27.10
81628;BME280;71036;51.102;6.514;2023-09-07T11:23:08;101164.22;;;38.19;25.55
81628;BME280;71036;51.102;6.514;2023-09-07T11:25:35;101173.41;;;37.40;27.37
81628;BME280;71036;51.102;6.514;2023-09-07T11:28:02;101168.84;;;36.33;27.61
81628;BME280;71036;51.102;6.514;2023-09-07T11:30:28;101159.16;;;37.07;26.44
81628;BME280;71036;51.102;6.514;2023-09-07T11:33:24;101161.03;;;36.50;27.42
81628;BME280;71036;51.102;6.514;2023-09-07T11:35:49;101160.56;;;37.19;26.36
81628;BME280;71036;51.102;6.514;2023-09-07T11:38:16;101156.03;;;36.73;26.98
81628;BME280;71036;51.102;6.514;2023-09-07T11:40:42;101160.78;;;36.52;28.34
81628;BME280;71036;51.102;6.514;2023-09-07T11:43:15;101156.59;;;35.82;27.43
81628;BME280;71036;51.102;6.514;2023-09-07T11:45:42;101156.59;;;35.40;29.82
81628;BME280;71036;51.102;6.514;2023-09-07T11:48:08;101144.84;;;35.33;28.38
81628;BME280;71036;51.102;6.514;2023-09-07T11:50:38;101150.84;;;34.08;31.47
81628;BME280;71036;51.102;6.514;2023-09-07T11:53:04;101147.00;;;35.63;29.43
81628;BME280;71036;51.102;6.514;2023-09-07T11:55:29;101149.50;;;35.65;28.65
81628;BME280;71036;51.102;6.514;2023-09-07T11:57:55;101148.97;;;34.94;29.63
81628;BME280;71036;51.102;6.514;2023-09-07T12:00:20;101145.44;;;34.45;30.77
81628;BME280;71036;51.102;6.514;2023-09-07T12:02:47;101151.22;;;35.76;29.23
81628;BME280;71036;51.102;6.514;2023-09-07T12:05:12;101148.09;;;35.20;30.44
81628;BME280;71036;51.102;6.514;2023-09-07T12:07:40;101144.63;;;35.50;29.55
81628;BME280;71036;51.102;6.514;2023-09-07T12:10:06;101147.84;;;34.90;30.55
81628;BME280;71036;51.102;6.514;2023-09-07T12:12:35;101148.94;;;36.25;29.16
81628;BME280;71036;51.102;6.514;2023-09-07T12:15:00;101144.84;;;37.13;27.32
81628;BME280;71036;51.102;6.514;2023-09-07T12:17:26;101151.00;;;36.65;29.71
81628;BME280;71036;51.102;6.514;2023-09-07T12:19:51;101144.75;;;36.37;27.68
81628;BME280;71036;51.102;6.514;2023-09-07T12:22:16;101146.22;;;36.70;27.05
81628;BME280;71036;51.102;6.514;2023-09-07T12:24:42;101138.28;;;36.32;27.57
81628;BME280;71036;51.102;6.514;2023-09-07T12:27:07;101130.09;;;36.05;28.24
81628;BME280;71036;51.102;6.514;2023-09-07T12:29:32;101126.84;;;35.19;28.51
81628;BME280;71036;51.102;6.514;2023-09-07T12:31:58;101123.19;;;34.55;30.36
81628;BME280;71036;51.102;6.514;2023-09-07T12:34:24;101118.56;;;35.03;31.25
81628;BME280;71036;51.102;6.514;2023-09-07T12:36:50;101116.38;;;36.09;28.57
81628;BME280;71036;51.102;6.514;2023-09-07T12:39:15;101114.88;;;34.33;30.00
81628;BME280;71036;51.102;6.514;2023-09-07T12:41:40;101109.72;;;34.79;28.99
81628;BME280;71036;51.102;6.514;2023-09-07T12:44:06;101110.84;;;35.15;29.19
81628;BME280;71036;51.102;6.514;2023-09-07T12:46:32;101107.16;;;34.46;30.71